createdAt,value
2022-10-07T00:01:11.834Z,12.60
2022-10-07T00:03:40.873Z,12.50
2022-10-07T00:06:13.524Z,12.50
2022-10-07T00:08:43.404Z,12.50
2022-10-07T00:11:15.219Z,12.60
2022-10-07T00:13:45.572Z,12.50
2022-10-07T00:16:15.655Z,12.60
2022-10-07T00:18:45.114Z,12.50
2022-10-07T00:21:16.802Z,12.50
2022-10-07T00:23:45.811Z,12.50
2022-10-07T00:26:17.896Z,12.50
2022-10-07T00:28:46.409Z,12.50
2022-10-07T00:31:17.605Z,12.50
2022-10-07T00:33:46.565Z,12.50
2022-10-07T00:36:17.727Z,12.50
2022-10-07T00:38:46.366Z,12.40
2022-10-07T00:41:20.224Z,12.50
2022-10-07T00:43:48.674Z,12.50
2022-10-07T00:46:26.985Z,12.50
2022-10-07T00:48:56.270Z,12.50
2022-10-07T00:51:24.943Z,12.50
2022-10-07T00:53:55.372Z,12.40
2022-10-07T00:56:26.611Z,12.50
2022-10-07T00:58:54.928Z,12.40
2022-10-07T01:01:23.462Z,12.40
2022-10-07T01:03:51.759Z,12.40
2022-10-07T01:06:19.994Z,12.40
2022-10-07T01:08:50.105Z,12.50
2022-10-07T01:11:29.489Z,12.40
2022-10-07T01:14:07.585Z,12.40
2022-10-07T01:16:44.896Z,12.30
2022-10-07T01:19:37.526Z,12.20
2022-10-07T01:22:16.565Z,12.30
2022-10-07T01:24:52.369Z,12.30
2022-10-07T01:27:24.054Z,12.30
2022-10-07T01:29:57.532Z,12.30
2022-10-07T01:32:32.166Z,12.20
2022-10-07T01:35:02.536Z,12.30
2022-10-07T01:37:36.159Z,12.20
2022-10-07T01:40:08.573Z,12.30
2022-10-07T01:42:39.937Z,12.30
2022-10-07T01:45:11.940Z,12.40
2022-10-07T01:47:41.502Z,12.30
2022-10-07T01:50:13.799Z,12.20
2022-10-07T01:52:55.739Z,12.20
2022-10-07T01:55:48.736Z,12.20
2022-10-07T01:58:38.253Z,12.30
2022-10-07T02:01:15.717Z,12.30
2022-10-07T02:04:04.759Z,12.30
2022-10-07T02:06:42.594Z,12.30
2022-10-07T02:09:21.222Z,12.30
2022-10-07T02:11:57.757Z,12.30
2022-10-07T02:14:36.909Z,12.30
2022-10-07T02:17:13.066Z,12.30
2022-10-07T02:19:45.948Z,12.30
2022-10-07T02:22:16.221Z,12.30
2022-10-07T02:24:47.615Z,12.20
2022-10-07T02:27:21.264Z,12.30
2022-10-07T02:29:53.826Z,12.20
2022-10-07T02:32:25.742Z,12.30
2022-10-07T02:34:58.780Z,12.30
2022-10-07T02:37:29.961Z,12.20
2022-10-07T02:39:59.333Z,12.20
2022-10-07T02:42:32.282Z,12.20
2022-10-07T02:45:12.546Z,12.30
2022-10-07T02:47:47.365Z,12.20
2022-10-07T02:50:21.004Z,12.20
2022-10-07T02:52:51.493Z,12.20
2022-10-07T02:55:24.810Z,12.20
2022-10-07T02:57:56.115Z,12.20
2022-10-07T03:00:25.983Z,12.20
2022-10-07T03:02:57.617Z,12.20
2022-10-07T03:05:27.042Z,12.30
2022-10-07T03:07:59.336Z,12.40
2022-10-07T03:10:28.980Z,12.40
2022-10-07T03:12:57.332Z,12.40
2022-10-07T03:15:27.871Z,12.30
2022-10-07T03:17:56.370Z,12.30
2022-10-07T03:20:24.626Z,12.30
2022-10-07T03:22:53.157Z,12.30
2022-10-07T03:25:21.635Z,12.30
2022-10-07T03:27:50.064Z,12.30
2022-10-07T03:30:24.559Z,12.20
2022-10-07T03:32:55.148Z,12.30
2022-10-07T03:35:23.575Z,12.30
2022-10-07T03:37:51.665Z,12.30
2022-10-07T03:40:20.442Z,12.30
2022-10-07T03:42:50.517Z,12.30
2022-10-07T03:45:20.902Z,12.20
2022-10-07T03:47:49.142Z,12.10
2022-10-07T03:50:18.954Z,12.10
2022-10-07T03:52:47.053Z,12.10
2022-10-07T03:55:16.351Z,12.10
2022-10-07T03:58:01.298Z,12.10
2022-10-07T04:00:29.833Z,12.20
2022-10-07T04:02:58.043Z,12.20
2022-10-07T04:05:28.308Z,12.20
2022-10-07T04:07:56.901Z,12.10
2022-10-07T04:10:25.260Z,12.10
2022-10-07T04:12:54.297Z,12.10
2022-10-07T04:15:22.861Z,12.10
2022-10-07T04:17:54.906Z,12.00
2022-10-07T04:20:23.069Z,12.10
2022-10-07T04:22:52.586Z,12.10
2022-10-07T04:25:35.746Z,12.10
2022-10-07T04:28:06.490Z,12.00
2022-10-07T04:30:40.744Z,11.90
2022-10-07T04:33:09.265Z,11.90
2022-10-07T04:35:38.868Z,11.90
2022-10-07T04:38:10.673Z,11.90
2022-10-07T04:40:42.819Z,11.90
2022-10-07T04:43:27.738Z,12.00
2022-10-07T04:46:02.460Z,12.00
2022-10-07T04:48:31.453Z,12.00
2022-10-07T04:51:03.267Z,12.10
2022-10-07T04:53:33.659Z,12.10
2022-10-07T04:56:01.937Z,12.20
2022-10-07T04:58:31.593Z,12.20
2022-10-07T05:01:02.034Z,12.30
2022-10-07T05:03:31.025Z,12.30
2022-10-07T05:06:06.088Z,12.30
2022-10-07T05:08:35.708Z,12.40
2022-10-07T05:11:04.831Z,12.50
2022-10-07T05:13:34.464Z,12.50
2022-10-07T05:16:04.171Z,12.50
2022-10-07T05:18:33.432Z,12.50
2022-10-07T05:21:06.396Z,12.60
2022-10-07T05:23:37.140Z,12.60
2022-10-07T05:26:08.940Z,12.70
2022-10-07T05:28:37.724Z,12.70
2022-10-07T05:31:08.087Z,12.70
2022-10-07T05:33:36.714Z,12.70
2022-10-07T05:36:05.586Z,12.80
2022-10-07T05:38:35.697Z,12.70
2022-10-07T05:41:05.849Z,12.80
2022-10-07T05:43:36.570Z,12.80
2022-10-07T05:46:07.455Z,12.80
2022-10-07T05:48:39.291Z,12.80
2022-10-07T05:51:08.850Z,12.80
2022-10-07T05:53:41.354Z,12.90
2022-10-07T05:56:12.766Z,12.90
2022-10-07T05:58:40.995Z,12.90
2022-10-07T06:01:15.078Z,13.00
2022-10-07T06:03:43.962Z,13.00
2022-10-07T06:06:12.437Z,13.10
2022-10-07T06:08:41.966Z,13.10
2022-10-07T06:11:30.897Z,13.10
2022-10-07T06:14:00.137Z,13.10
2022-10-07T06:16:28.737Z,13.10
2022-10-07T06:18:57.383Z,13.10
2022-10-07T06:21:28.287Z,13.00
2022-10-07T06:23:59.031Z,13.00
2022-10-07T06:26:27.951Z,13.00
2022-10-07T06:28:56.118Z,13.00
2022-10-07T06:31:25.761Z,13.10
2022-10-07T06:33:55.145Z,13.00
2022-10-07T06:36:24.095Z,13.00
2022-10-07T06:38:54.447Z,13.10
2022-10-07T06:41:24.974Z,13.10
2022-10-07T06:43:57.407Z,13.20
2022-10-07T06:46:25.900Z,13.20
2022-10-07T06:48:54.441Z,13.20
2022-10-07T06:51:24.102Z,13.20
2022-10-07T06:53:54.828Z,13.20
2022-10-07T06:56:24.669Z,13.20
2022-10-07T06:58:53.015Z,13.20
2022-10-07T07:01:21.519Z,13.20
2022-10-07T07:03:49.681Z,13.30
2022-10-07T07:06:18.641Z,13.30
2022-10-07T07:08:50.455Z,13.40
2022-10-07T07:11:39.179Z,13.50
2022-10-07T07:14:10.267Z,13.50
2022-10-07T07:16:39.170Z,13.50
2022-10-07T07:19:09.559Z,13.50
2022-10-07T07:21:40.858Z,13.50
2022-10-07T07:24:09.853Z,13.50
2022-10-07T07:26:39.499Z,13.60
2022-10-07T07:29:09.354Z,13.50
2022-10-07T07:31:38.400Z,13.50
2022-10-07T07:34:11.816Z,13.50
2022-10-07T07:36:48.208Z,13.40
2022-10-07T07:39:18.787Z,13.40
2022-10-07T07:41:47.897Z,13.40
2022-10-07T07:44:19.623Z,13.40
2022-10-07T07:46:51.265Z,13.40
2022-10-07T07:49:21.046Z,13.40
2022-10-07T07:51:49.410Z,13.40
2022-10-07T07:54:19.012Z,13.40
2022-10-07T07:56:47.593Z,13.40
2022-10-07T07:59:17.131Z,13.40
2022-10-07T08:01:46.341Z,13.40
2022-10-07T08:04:15.375Z,13.40
2022-10-07T08:06:43.625Z,13.40
2022-10-07T08:09:13.005Z,13.50
2022-10-07T08:11:43.834Z,13.50
2022-10-07T08:14:13.680Z,13.50
2022-10-07T08:16:45.095Z,13.50
2022-10-07T08:19:13.542Z,13.50
2022-10-07T08:21:42.410Z,13.50
2022-10-07T08:24:14.181Z,13.50
2022-10-07T08:26:42.412Z,13.50
2022-10-07T08:29:11.191Z,13.60
2022-10-07T08:31:39.458Z,13.60
2022-10-07T08:34:09.064Z,13.60
2022-10-07T08:36:37.555Z,13.70
2022-10-07T08:39:06.642Z,13.80
2022-10-07T08:41:51.610Z,13.80
2022-10-07T08:44:25.410Z,13.90
2022-10-07T08:46:59.961Z,13.90
2022-10-07T08:49:37.340Z,14.00
2022-10-07T08:52:25.318Z,14.00
2022-10-07T08:54:54.703Z,14.00
2022-10-07T08:57:37.288Z,14.00
2022-10-07T09:00:07.628Z,14.10
2022-10-07T09:02:45.234Z,14.20
2022-10-07T09:05:22.637Z,14.20
2022-10-07T09:07:55.110Z,14.30
2022-10-07T09:10:32.599Z,14.30
2022-10-07T09:13:04.789Z,14.40
2022-10-07T09:15:40.347Z,14.40
2022-10-07T09:18:17.633Z,14.40
2022-10-07T09:20:54.027Z,14.40
2022-10-07T09:23:25.238Z,14.50
2022-10-07T09:25:53.822Z,14.60
2022-10-07T09:28:28.621Z,14.60
2022-10-07T09:30:57.475Z,14.70
2022-10-07T09:33:26.514Z,14.80
2022-10-07T09:35:58.339Z,14.80
2022-10-07T09:38:34.498Z,14.90
2022-10-07T09:41:19.674Z,14.90
2022-10-07T09:44:05.077Z,14.80
2022-10-07T09:46:43.844Z,14.80
2022-10-07T09:49:32.438Z,14.80
2022-10-07T09:52:04.033Z,14.80
2022-10-07T09:54:34.053Z,14.80
2022-10-07T09:57:04.272Z,14.70
2022-10-07T09:59:34.021Z,14.80
2022-10-07T10:02:10.881Z,14.80
2022-10-07T10:04:48.200Z,14.80
2022-10-07T10:07:22.158Z,14.80
2022-10-07T10:09:51.590Z,14.80
2022-10-07T10:12:21.443Z,14.90
2022-10-07T10:14:51.186Z,14.90
2022-10-07T10:17:32.479Z,14.80
2022-10-07T10:20:44.980Z,14.80
2022-10-07T10:23:29.415Z,14.80
2022-10-07T10:26:32.494Z,14.70
2022-10-07T10:29:13.086Z,14.70
2022-10-07T10:32:02.254Z,14.60
2022-10-07T10:34:39.001Z,14.50
2022-10-07T10:37:14.858Z,14.50
2022-10-07T10:39:57.529Z,14.50
2022-10-07T10:42:36.039Z,14.50
2022-10-07T10:45:15.598Z,14.50
2022-10-07T10:48:02.114Z,14.50
2022-10-07T10:50:36.408Z,14.50
2022-10-07T10:53:18.975Z,14.50
2022-10-07T10:56:06.442Z,14.60
2022-10-07T10:58:47.072Z,14.60
2022-10-07T11:01:24.312Z,14.50
2022-10-07T11:04:11.471Z,14.50
2022-10-07T11:06:42.204Z,14.50
2022-10-07T11:09:17.523Z,14.50
2022-10-07T11:11:47.137Z,14.60
2022-10-07T11:14:20.266Z,14.60
2022-10-07T11:16:52.050Z,14.80
2022-10-07T11:19:24.918Z,14.80
2022-10-07T11:21:55.345Z,14.80
2022-10-07T11:24:27.594Z,14.80
2022-10-07T11:27:03.575Z,14.90
2022-10-07T11:29:41.871Z,14.90
2022-10-07T11:32:16.562Z,15.00
2022-10-07T11:34:54.738Z,15.00
2022-10-07T11:37:28.390Z,15.00
2022-10-07T11:39:57.368Z,15.10
2022-10-07T11:42:30.133Z,15.10
2022-10-07T11:45:03.300Z,15.20
2022-10-07T11:47:36.113Z,15.30
2022-10-07T11:50:09.232Z,15.30
2022-10-07T11:52:44.571Z,15.40
2022-10-07T11:55:22.989Z,15.50
2022-10-07T11:57:56.695Z,15.60
2022-10-07T12:00:27.973Z,15.70
2022-10-07T12:02:57.081Z,15.80
2022-10-07T12:05:55.586Z,15.90
2022-10-07T12:08:30.380Z,16.00
2022-10-07T12:11:46.062Z,16.00
2022-10-07T12:14:44.754Z,16.00
2022-10-07T12:17:29.582Z,15.90
2022-10-07T12:20:37.269Z,15.90
2022-10-07T12:23:51.400Z,15.90
2022-10-07T12:26:50.477Z,16.00
2022-10-07T12:29:53.759Z,16.00
2022-10-07T12:32:41.242Z,16.00
2022-10-07T12:35:55.634Z,16.10
2022-10-07T12:38:28.559Z,16.10
2022-10-07T12:41:25.478Z,16.10
2022-10-07T12:44:04.554Z,16.20
2022-10-07T12:46:39.643Z,16.20
2022-10-07T12:49:18.453Z,16.30
2022-10-07T12:51:47.660Z,16.40
2022-10-07T12:54:20.247Z,16.40
2022-10-07T12:56:49.880Z,16.40
2022-10-07T12:59:50.202Z,16.40
2022-10-07T13:02:55.250Z,16.50
2022-10-07T13:05:56.554Z,16.40
2022-10-07T13:09:10.964Z,16.50
2022-10-07T13:12:09.104Z,16.40
2022-10-07T13:14:44.509Z,16.40
2022-10-07T13:17:27.809Z,16.40
2022-10-07T13:20:10.069Z,16.50
2022-10-07T13:22:40.151Z,16.40
2022-10-07T13:25:09.371Z,16.40
2022-10-07T13:27:41.602Z,16.40
2022-10-07T13:30:35.679Z,16.40
2022-10-07T13:33:16.061Z,16.40
2022-10-07T13:35:45.846Z,16.40
2022-10-07T13:38:30.718Z,16.40
2022-10-07T13:41:06.079Z,16.40
2022-10-07T13:43:35.738Z,16.30
2022-10-07T13:46:06.747Z,16.40
2022-10-07T13:48:41.848Z,16.40
2022-10-07T13:51:25.794Z,16.40
2022-10-07T13:53:56.961Z,16.30
2022-10-07T13:56:27.969Z,16.40
2022-10-07T13:58:58.525Z,16.30
2022-10-07T14:01:32.761Z,16.30
2022-10-07T14:04:17.024Z,16.30
2022-10-07T14:07:01.415Z,16.40
2022-10-07T14:09:45.903Z,16.50
2022-10-07T14:12:21.628Z,16.50
2022-10-07T14:14:53.505Z,16.40
2022-10-07T14:17:31.635Z,16.40
2022-10-07T14:20:06.221Z,16.40
2022-10-07T14:22:41.103Z,16.40
2022-10-07T14:25:19.361Z,16.40
2022-10-07T14:28:10.035Z,16.40
2022-10-07T14:30:58.001Z,16.40
2022-10-07T14:33:48.249Z,16.40
2022-10-07T14:36:18.273Z,16.40
2022-10-07T14:38:49.751Z,16.40
2022-10-07T14:41:19.948Z,16.50
2022-10-07T14:43:51.847Z,16.50
2022-10-07T14:46:21.844Z,16.40
2022-10-07T14:48:51.271Z,16.40
2022-10-07T14:51:23.889Z,16.40
2022-10-07T14:53:55.921Z,16.40
2022-10-07T14:56:27.936Z,16.30
2022-10-07T14:58:56.491Z,16.30
2022-10-07T15:01:25.070Z,16.30
2022-10-07T15:03:53.523Z,16.30
2022-10-07T15:06:22.698Z,16.30
2022-10-07T15:08:51.088Z,16.30
2022-10-07T15:11:22.630Z,16.30
2022-10-07T15:13:51.183Z,16.20
2022-10-07T15:16:21.450Z,16.20
2022-10-07T15:18:52.739Z,16.10
2022-10-07T15:21:22.298Z,16.10
2022-10-07T15:23:53.681Z,16.10
2022-10-07T15:26:24.984Z,16.10
2022-10-07T15:28:55.346Z,16.10
2022-10-07T15:31:24.820Z,16.10
2022-10-07T15:33:58.230Z,16.00
2022-10-07T15:36:29.116Z,15.90
2022-10-07T15:38:59.913Z,15.80
2022-10-07T15:41:35.393Z,15.70
2022-10-07T15:44:06.344Z,15.60
2022-10-07T15:46:35.019Z,15.50
2022-10-07T15:49:03.613Z,15.40
2022-10-07T15:51:32.562Z,15.30
2022-10-07T15:54:00.745Z,15.10
2022-10-07T15:56:28.801Z,15.00
2022-10-07T15:59:00.684Z,14.80
2022-10-07T16:01:31.659Z,14.70
2022-10-07T16:04:02.543Z,14.60
2022-10-07T16:06:33.059Z,14.60
2022-10-07T16:09:02.707Z,14.50
2022-10-07T16:11:33.428Z,14.50
2022-10-07T16:14:04.146Z,14.40
2022-10-07T16:16:33.300Z,14.30
2022-10-07T16:19:02.681Z,14.10
2022-10-07T16:21:33.040Z,14.00
2022-10-07T16:24:03.981Z,14.00
2022-10-07T16:26:35.888Z,14.00
2022-10-07T16:29:25.063Z,13.90
2022-10-07T16:31:58.347Z,13.90
2022-10-07T16:34:28.118Z,13.90
2022-10-07T16:36:57.477Z,13.80
2022-10-07T16:39:26.051Z,13.80
2022-10-07T16:41:55.117Z,13.70
2022-10-07T16:44:25.755Z,13.50
2022-10-07T16:46:56.895Z,13.50
2022-10-07T16:49:27.806Z,13.40
2022-10-07T16:51:56.473Z,13.40
2022-10-07T16:54:25.304Z,13.40
2022-10-07T16:56:54.368Z,13.40
2022-10-07T16:59:25.291Z,13.40
2022-10-07T17:01:56.238Z,13.30
2022-10-07T17:04:25.573Z,13.30
2022-10-07T17:06:54.149Z,13.30
2022-10-07T17:09:24.869Z,13.30
2022-10-07T17:11:53.418Z,13.30
2022-10-07T17:14:23.080Z,13.30
2022-10-07T17:16:54.884Z,13.30
2022-10-07T17:19:24.331Z,13.30
2022-10-07T17:21:53.717Z,13.40
2022-10-07T17:24:23.855Z,13.30
2022-10-07T17:26:52.984Z,13.40
2022-10-07T17:29:23.412Z,13.30
2022-10-07T17:31:53.498Z,13.30
2022-10-07T17:34:22.576Z,13.20
2022-10-07T17:36:51.397Z,13.30
2022-10-07T17:39:20.208Z,13.30
2022-10-07T17:41:48.707Z,13.30
2022-10-07T17:44:17.118Z,13.40
2022-10-07T17:46:45.921Z,13.40
2022-10-07T17:49:15.532Z,13.50
2022-10-07T17:51:44.413Z,13.40
2022-10-07T17:54:14.833Z,13.50
2022-10-07T17:56:47.867Z,13.40
2022-10-07T17:59:17.103Z,13.40
2022-10-07T18:01:45.683Z,13.40
2022-10-07T18:04:23.661Z,13.50
2022-10-07T18:06:52.787Z,13.50
2022-10-07T18:09:22.965Z,13.50
2022-10-07T18:12:09.161Z,13.50
2022-10-07T18:14:55.326Z,13.50
2022-10-07T18:17:24.710Z,13.50
2022-10-07T18:19:54.924Z,13.50
2022-10-07T18:22:24.546Z,13.50
2022-10-07T18:24:57.166Z,13.70
2022-10-07T18:27:27.135Z,13.70
2022-10-07T18:29:55.876Z,13.70
2022-10-07T18:32:24.511Z,13.70
2022-10-07T18:34:54.409Z,13.70
2022-10-07T18:37:23.613Z,13.70
2022-10-07T18:39:52.320Z,13.60
2022-10-07T18:42:20.895Z,13.60
2022-10-07T18:44:50.302Z,13.50
2022-10-07T18:47:18.411Z,13.60
2022-10-07T18:49:46.887Z,13.70
2022-10-07T18:52:16.717Z,13.60
2022-10-07T18:54:44.812Z,13.70
2022-10-07T18:57:13.307Z,13.70
2022-10-07T18:59:41.397Z,13.70
2022-10-07T19:02:11.878Z,13.70
2022-10-07T19:04:40.438Z,13.70
2022-10-07T19:07:08.546Z,13.60
2022-10-07T19:09:38.062Z,13.60
2022-10-07T19:12:26.927Z,13.60
2022-10-07T19:14:54.367Z,13.60
2022-10-07T19:17:24.029Z,13.70
2022-10-07T19:19:52.310Z,13.80
2022-10-07T19:22:20.413Z,13.80
2022-10-07T19:25:07.542Z,13.70
2022-10-07T19:27:35.712Z,13.70
2022-10-07T19:30:04.824Z,13.70
2022-10-07T19:32:33.596Z,13.70
2022-10-07T19:35:02.143Z,13.70
2022-10-07T19:37:30.478Z,13.80
2022-10-07T19:40:00.142Z,13.70
2022-10-07T19:42:28.797Z,13.70
2022-10-07T19:44:56.967Z,13.60
2022-10-07T19:47:25.415Z,13.60
2022-10-07T19:49:53.839Z,13.60
2022-10-07T19:52:22.084Z,13.70
2022-10-07T19:54:51.066Z,13.60
2022-10-07T19:57:21.578Z,13.60
2022-10-07T19:59:50.058Z,13.60
2022-10-07T20:02:19.882Z,13.50
2022-10-07T20:04:48.039Z,13.50
2022-10-07T20:07:18.089Z,13.50
2022-10-07T20:09:46.323Z,13.40
2022-10-07T20:12:14.859Z,13.50
2022-10-07T20:14:45.478Z,13.40
2022-10-07T20:17:13.695Z,13.40
2022-10-07T20:19:43.362Z,13.40
2022-10-07T20:22:11.551Z,13.40
2022-10-07T20:24:40.086Z,13.40
2022-10-07T20:27:08.190Z,13.40
2022-10-07T20:29:57.211Z,13.50
2022-10-07T20:32:28.274Z,13.50
2022-10-07T20:34:56.905Z,13.50
2022-10-07T20:37:25.243Z,13.50
2022-10-07T20:40:10.834Z,13.50
2022-10-07T20:42:42.200Z,13.60
2022-10-07T20:45:12.795Z,13.60
2022-10-07T20:47:42.533Z,13.60
2022-10-07T20:50:11.283Z,13.60
2022-10-07T20:52:39.555Z,13.50
2022-10-07T20:55:10.113Z,13.50
2022-10-07T20:57:39.397Z,13.50
2022-10-07T21:00:16.450Z,13.50
2022-10-07T21:02:46.465Z,13.50
2022-10-07T21:05:15.143Z,13.50
2022-10-07T21:07:43.734Z,13.40
2022-10-07T21:10:11.866Z,13.30
2022-10-07T21:12:41.166Z,13.30
2022-10-07T21:15:10.432Z,13.30
2022-10-07T21:17:40.754Z,13.40
2022-10-07T21:20:10.623Z,13.30
2022-10-07T21:22:39.080Z,13.30
2022-10-07T21:25:11.645Z,13.40
2022-10-07T21:27:40.076Z,13.30
2022-10-07T21:30:10.625Z,13.30
2022-10-07T21:32:38.824Z,13.30
2022-10-07T21:35:09.605Z,13.40
2022-10-07T21:37:37.859Z,13.40
2022-10-07T21:40:06.535Z,13.30
2022-10-07T21:42:35.050Z,13.30
2022-10-07T21:45:03.261Z,13.20
2022-10-07T21:47:31.414Z,13.20
2022-10-07T21:49:59.716Z,13.20
2022-10-07T21:52:29.742Z,13.10
2022-10-07T21:54:57.945Z,13.10
2022-10-07T21:57:26.238Z,13.00
2022-10-07T21:59:54.637Z,13.00
2022-10-07T22:02:22.832Z,13.00
2022-10-07T22:04:51.084Z,13.10
2022-10-07T22:07:36.757Z,13.10
2022-10-07T22:10:07.520Z,13.10
2022-10-07T22:12:35.660Z,13.10
2022-10-07T22:15:03.801Z,13.10
2022-10-07T22:17:34.772Z,13.00
2022-10-07T22:20:02.896Z,13.00
2022-10-07T22:22:31.698Z,13.00
2022-10-07T22:25:01.268Z,13.10
2022-10-07T22:27:30.739Z,13.10
2022-10-07T22:29:59.464Z,13.10
2022-10-07T22:32:27.569Z,13.10
2022-10-07T22:35:13.448Z,13.10
2022-10-07T22:37:41.903Z,13.10
2022-10-07T22:40:10.982Z,13.10
2022-10-07T22:42:40.482Z,13.10
2022-10-07T22:45:09.699Z,13.10
2022-10-07T22:47:38.089Z,13.10
2022-10-07T22:50:08.413Z,13.10
2022-10-07T22:52:37.116Z,13.00
2022-10-07T22:55:05.980Z,13.00
2022-10-07T22:57:36.486Z,13.00
2022-10-07T23:00:07.316Z,13.00
2022-10-07T23:02:35.518Z,12.90
2022-10-07T23:05:04.104Z,13.00
2022-10-07T23:07:32.684Z,13.00
2022-10-07T23:10:00.764Z,13.10
2022-10-07T23:12:29.072Z,13.00
2022-10-07T23:14:57.333Z,13.00
2022-10-07T23:17:26.837Z,12.90
2022-10-07T23:19:55.701Z,12.90
2022-10-07T23:22:23.866Z,12.90
2022-10-07T23:24:52.427Z,12.90
2022-10-07T23:27:20.681Z,12.90
2022-10-07T23:29:49.581Z,12.80
2022-10-07T23:32:20.009Z,12.90
2022-10-07T23:34:49.761Z,12.90
2022-10-07T23:37:17.938Z,12.90
2022-10-07T23:39:46.010Z,12.90
2022-10-07T23:42:14.465Z,12.90
2022-10-07T23:44:42.569Z,12.90
2022-10-07T23:47:10.665Z,12.90
2022-10-07T23:49:39.218Z,12.90
2022-10-07T23:52:08.715Z,12.90
2022-10-07T23:54:36.811Z,13.00
2022-10-07T23:57:05.585Z,13.10
2022-10-07T23:59:33.894Z,13.10
